Time;durP1;ratioP1;P1;durP2;ratioP2;P2;SDS_P1;SDS_P2;PMS_P1;PMS_P2;Temp;Humidity;BMP_temperature;BMP_pressure;BME280_temperature;BME280_humidity;BME280_pressure;Samples;Min_cycle;Max_cycle;Signal;HPM_P1;HPM_P2
2022/03/01 00:01:23;;;;;;;;;;;;;;;3.34;47.52;101374.84;4426354;32;34090;-86
2022/03/01 00:03:51;;;;;;;;;;;;;;;3.43;47.83;101371.84;4437754;32;36156;-84
2022/03/01 00:06:18;;;;;;;;;;;;;;;3.52;46.83;101381.16;4429128;32;34674;-88
2022/03/01 00:08:45;;;;;;;;;;;;;;;3.67;46.22;101365.59;4436041;32;32949;-88
2022/03/01 00:11:13;;;;;;;;;;;;;;;3.50;47.08;101380.38;4454197;32;33673;-85
2022/03/01 00:13:41;;;;;;;;;;;;;;;3.62;46.52;101377.25;4423845;32;35347;-82
2022/03/01 00:16:08;;;;;;;;;;;;;;;3.64;46.38;101378.03;4423901;32;33212;-86
2022/03/01 00:18:36;;;;;;;;;;;;;;;3.47;46.91;101381.34;4424476;32;33614;-86
2022/03/01 00:21:07;;;;;;;;;;;;;;;3.23;47.91;101377.06;4423940;32;32515;-85
2022/03/01 00:23:34;;;;;;;;;;;;;;;3.29;47.25;101370.69;4419008;32;34929;-84
2022/03/01 00:26:03;;;;;;;;;;;;;;;3.58;46.35;101375.66;4440278;32;34025;-85
2022/03/01 00:28:30;;;;;;;;;;;;;;;3.49;46.80;101363.72;4424424;32;32222;-82
2022/03/01 00:30:57;;;;;;;;;;;;;;;3.58;46.38;101373.88;4442761;32;33939;-86
2022/03/01 00:33:25;;;;;;;;;;;;;;;3.45;46.58;101377.06;4448469;32;35176;-85
2022/03/01 00:35:53;;;;;;;;;;;;;;;3.74;46.19;101372.34;4427452;32;32801;-82
2022/03/01 00:38:21;;;;;;;;;;;;;;;3.66;46.76;101366.53;4439267;32;33726;-86
2022/03/01 00:40:49;;;;;;;;;;;;;;;3.62;46.83;101370.19;4423871;32;32871;-85
2022/03/01 00:43:16;;;;;;;;;;;;;;;3.68;46.34;101366.47;4423483;32;33814;-87
2022/03/01 00:45:44;;;;;;;;;;;;;;;3.48;46.63;101369.91;4452789;32;34662;-84
2022/03/01 00:48:12;;;;;;;;;;;;;;;3.82;46.18;101362.34;4448471;32;33202;-86
2022/03/01 00:50:39;;;;;;;;;;;;;;;3.66;46.35;101363.91;4422000;32;33066;-86
2022/03/01 00:53:07;;;;;;;;;;;;;;;3.61;46.90;101368.47;4422565;32;35402;-85
2022/03/01 00:55:35;;;;;;;;;;;;;;;3.76;45.97;101365.22;4439360;32;35204;-85
2022/03/01 00:58:02;;;;;;;;;;;;;;;3.18;47.33;101370.25;4397883;32;883539;-81
2022/03/01 01:00:30;;;;;;;;;;;;;;;3.42;46.89;101364.88;4433889;32;34747;-85
2022/03/01 01:02:58;;;;;;;;;;;;;;;3.36;46.55;101359.88;4421038;32;35217;-86
2022/03/01 01:05:25;;;;;;;;;;;;;;;3.72;45.95;101353.13;4419955;32;32716;-83
2022/03/01 01:07:53;;;;;;;;;;;;;;;3.91;45.70;101359.34;4441681;32;33588;-85
2022/03/01 01:10:21;;;;;;;;;;;;;;;3.76;45.62;101357.34;4416893;32;34761;-87
2022/03/01 01:12:48;;;;;;;;;;;;;;;3.95;45.42;101353.00;4438721;32;35177;-86
2022/03/01 01:15:16;;;;;;;;;;;;;;;3.77;45.29;101359.03;4436387;32;35324;-84
2022/03/01 01:17:44;;;;;;;;;;;;;;;3.44;46.68;101359.56;4454033;32;34106;-88
2022/03/01 01:20:12;;;;;;;;;;;;;;;3.44;46.25;101357.81;4439495;32;34289;-83
2022/03/01 01:22:40;;;;;;;;;;;;;;;3.48;46.39;101363.78;4421065;32;35506;-86
2022/03/01 01:25:19;;;;;;;;;;;;;;;3.64;46.26;101363.13;4425386;32;34388;-86
2022/03/01 01:27:48;;;;;;;;;;;;;;;3.50;46.29;101370.69;4434864;32;33613;-83
2022/03/01 01:30:18;;;;;;;;;;;;;;;3.59;46.37;101364.22;4454452;32;33808;-86
2022/03/01 01:32:48;;;;;;;;;;;;;;;3.68;46.18;101361.22;4438223;32;35400;-88
2022/03/01 01:35:18;;;;;;;;;;;;;;;3.73;45.71;101361.88;4452154;32;35402;-86
2022/03/01 01:37:46;;;;;;;;;;;;;;;3.56;45.93;101366.94;4428304;32;31955;-86
2022/03/01 01:40:15;;;;;;;;;;;;;;;3.96;44.92;101362.59;4423241;32;32347;-80
2022/03/01 01:42:43;;;;;;;;;;;;;;;3.47;46.25;101368.19;4450702;32;34875;-87
2022/03/01 01:45:12;;;;;;;;;;;;;;;3.67;45.56;101356.84;4435433;32;34755;-85
2022/03/01 01:47:46;;;;;;;;;;;;;;;3.87;45.54;101360.38;4428742;32;32836;-86
2022/03/01 01:50:14;;;;;;;;;;;;;;;3.63;45.19;101360.53;4423652;32;33012;-87
2022/03/01 01:52:43;;;;;;;;;;;;;;;3.57;45.18;101361.63;4437794;32;34884;-85
2022/03/01 01:55:11;;;;;;;;;;;;;;;3.64;45.39;101360.47;4451826;32;35255;-85
2022/03/01 01:57:39;;;;;;;;;;;;;;;3.62;45.39;101357.03;4413269;32;31208;-87
2022/03/01 02:00:10;;;;;;;;;;;;;;;3.34;46.54;101352.97;4432565;32;32220;-84
2022/03/01 02:02:38;;;;;;;;;;;;;;;3.36;46.70;101353.75;4425335;32;34248;-85
2022/03/01 02:05:07;;;;;;;;;;;;;;;3.17;46.48;101350.16;4436909;32;34343;-87
2022/03/01 02:07:35;;;;;;;;;;;;;;;3.15;46.19;101347.56;4453458;32;33721;-87
2022/03/01 02:10:02;;;;;;;;;;;;;;;3.36;46.25;101353.75;4437732;32;33881;-82
2022/03/01 02:12:30;;;;;;;;;;;;;;;3.51;45.52;101354.00;4423726;32;35274;-86
2022/03/01 02:14:57;;;;;;;;;;;;;;;3.61;45.25;101346.59;4428541;32;33794;-87
2022/03/01 02:17:29;;;;;;;;;;;;;;;3.42;45.83;101349.09;4442374;32;33859;-85
2022/03/01 02:19:58;;;;;;;;;;;;;;;3.29;46.03;101337.38;4437149;32;34355;-85
2022/03/01 02:22:33;;;;;;;;;;;;;;;3.28;46.21;101342.69;4433784;32;34807;-88
2022/03/01 02:25:00;;;;;;;;;;;;;;;3.18;46.40;101342.22;4425825;32;34824;-88
2022/03/01 02:27:30;;;;;;;;;;;;;;;2.66;47.09;101349.53;4454973;32;32886;-88
2022/03/01 02:29:59;;;;;;;;;;;;;;;3.30;46.16;101339.09;4427595;32;33497;-83
2022/03/01 02:32:26;;;;;;;;;;;;;;;3.24;45.64;101334.06;4440853;32;35156;-88
2022/03/01 02:34:54;;;;;;;;;;;;;;;3.43;45.38;101339.44;4438923;32;35134;-88
2022/03/01 02:37:21;;;;;;;;;;;;;;;3.22;45.87;101335.06;4436834;32;34569;-81
2022/03/01 02:39:49;;;;;;;;;;;;;;;3.23;45.85;101334.97;4424912;32;32318;-88
2022/03/01 02:42:21;;;;;;;;;;;;;;;3.44;45.26;101331.50;4452651;32;34566;-84
2022/03/01 02:44:49;;;;;;;;;;;;;;;3.32;45.64;101331.97;4414271;32;33770;-85
2022/03/01 02:47:17;;;;;;;;;;;;;;;3.45;45.20;101333.22;4436579;32;33131;-81
2022/03/01 02:49:44;;;;;;;;;;;;;;;3.23;45.47;101334.97;4444629;32;34808;-86
2022/03/01 02:52:13;;;;;;;;;;;;;;;3.40;45.59;101336.94;4443907;32;36140;-85
2022/03/01 02:54:41;;;;;;;;;;;;;;;3.70;44.24;101327.78;4456541;32;34875;-87
2022/03/01 02:57:10;;;;;;;;;;;;;;;3.38;44.72;101331.75;4424009;32;33916;-88
2022/03/01 02:59:39;;;;;;;;;;;;;;;3.32;45.15;101329.34;4456288;32;33270;-84
2022/03/01 03:02:06;;;;;;;;;;;;;;;3.11;45.76;101326.72;4413745;32;34630;-86
2022/03/01 03:04:34;;;;;;;;;;;;;;;3.31;45.02;101326.81;4441196;32;33905;-86
2022/03/01 03:07:02;;;;;;;;;;;;;;;3.25;45.35;101327.91;4435827;32;32791;-85
2022/03/01 03:09:29;;;;;;;;;;;;;;;3.44;44.96;101326.25;4441860;32;34138;-87
2022/03/01 03:11:57;;;;;;;;;;;;;;;3.45;44.78;101327.94;4427913;32;34402;-87
2022/03/01 03:14:24;;;;;;;;;;;;;;;3.22;45.21;101335.06;4437515;32;35392;-87
2022/03/01 03:16:52;;;;;;;;;;;;;;;3.24;45.64;101334.06;4440634;32;34142;-85
2022/03/01 03:19:19;;;;;;;;;;;;;;;3.33;45.03;101331.06;4450409;32;33817;-88
2022/03/01 03:21:47;;;;;;;;;;;;;;;3.62;44.00;101329.88;4435774;32;35208;-86
2022/03/01 03:24:14;;;;;;;;;;;;;;;3.58;44.65;101336.19;4438321;32;34781;-85
2022/03/01 03:26:42;;;;;;;;;;;;;;;3.54;44.21;101332.84;4435897;32;32988;-85
2022/03/01 03:29:10;;;;;;;;;;;;;;;3.49;44.34;101328.69;4439551;32;33312;-85
2022/03/01 03:31:38;;;;;;;;;;;;;;;3.31;45.42;101326.81;4435314;32;35269;-83
2022/03/01 03:34:08;;;;;;;;;;;;;;;3.44;44.40;101335.91;4437821;32;34482;-86
2022/03/01 03:36:36;;;;;;;;;;;;;;;3.25;45.05;101337.56;4417413;32;32996;-85
2022/03/01 03:39:03;;;;;;;;;;;;;;;3.38;44.70;101337.00;4439577;32;33532;-86
2022/03/01 03:41:31;;;;;;;;;;;;;;;3.57;43.89;101330.06;4425246;32;35092;-85
2022/03/01 03:43:59;;;;;;;;;;;;;;;3.53;44.00;101336.38;4437080;32;34683;-87
2022/03/01 03:46:27;;;;;;;;;;;;;;;3.69;43.90;101337.44;4444818;32;32763;-88
2022/03/01 03:48:54;;;;;;;;;;;;;;;3.53;44.50;101340.78;4455919;32;34498;-86
2022/03/01 03:51:23;;;;;;;;;;;;;;;3.59;44.03;101333.47;4428949;32;34056;-84
2022/03/01 03:53:50;;;;;;;;;;;;;;;3.37;43.95;101337.06;4424591;32;35164;-81
2022/03/01 03:56:18;;;;;;;;;;;;;;;3.56;44.02;101338.00;4432182;32;32567;-88
2022/03/01 03:58:47;;;;;;;;;;;;;;;3.48;44.25;101334.84;4454134;32;33795;-86
2022/03/01 04:01:14;;;;;;;;;;;;;;;3.75;43.07;101339.84;4451541;32;36091;-83
2022/03/01 04:03:42;;;;;;;;;;;;;;;3.70;43.43;101339.16;4419280;32;33411;-89
2022/03/01 04:06:10;;;;;;;;;;;;;;;3.46;44.05;101344.56;4422241;32;33807;-86
2022/03/01 04:08:37;;;;;;;;;;;;;;;3.59;44.00;101337.91;4422197;32;32930;-87
2022/03/01 04:11:05;;;;;;;;;;;;;;;3.53;43.76;101335.53;4428951;32;35523;-82
2022/03/01 04:13:33;;;;;;;;;;;;;;;3.56;42.88;101338.87;4427595;32;33929;-82
2022/03/01 04:16:01;;;;;;;;;;;;;;;3.46;43.92;101344.56;4427764;32;32713;-83
2022/03/01 04:18:29;;;;;;;;;;;;;;;3.59;43.57;101332.66;4419118;32;33213;-87
2022/03/01 04:20:57;;;;;;;;;;;;;;;3.23;44.54;101344.66;4422270;32;36917;-82
2022/03/01 04:23:25;;;;;;;;;;;;;;;3.26;44.02;101334.00;4423020;32;34889;-86
2022/03/01 04:25:52;;;;;;;;;;;;;;;3.45;43.95;101340.22;4440663;32;33019;-82
2022/03/01 04:28:20;;;;;;;;;;;;;;;3.45;44.53;101346.38;4451547;32;33804;-86
2022/03/01 04:30:47;;;;;;;;;;;;;;;3.45;44.44;101345.50;4426895;32;34759;-86
2022/03/01 04:33:14;;;;;;;;;;;;;;;3.50;44.22;101338.28;4438396;32;35280;-85
2022/03/01 04:35:42;;;;;;;;;;;;;;;3.64;43.33;101338.56;4438291;32;32493;-86
2022/03/01 04:38:09;;;;;;;;;;;;;;;3.65;43.39;101340.25;4432504;32;35508;-86
2022/03/01 04:40:37;;;;;;;;;;;;;;;3.31;43.84;101347.84;4420576;32;36522;-82
2022/03/01 04:43:05;;;;;;;;;;;;;;;3.53;43.88;101346.03;4435816;32;35219;-86
2022/03/01 04:45:32;;;;;;;;;;;;;;;3.54;43.92;101348.63;4431273;32;33419;-86
2022/03/01 04:48:00;;;;;;;;;;;;;;;3.40;44.51;101350.09;4435969;32;34544;-86
2022/03/01 04:50:27;;;;;;;;;;;;;;;3.35;44.56;101347.66;4428084;32;33349;-86
2022/03/01 04:52:54;;;;;;;;;;;;;;;3.29;44.34;101347.91;4409792;32;34374;-87
2022/03/01 04:55:22;;;;;;;;;;;;;;;3.44;44.08;101351.69;4433753;32;32466;-86
2022/03/01 04:57:49;;;;;;;;;;;;;;;3.52;44.10;101344.34;4423787;32;34910;-88
2022/03/01 05:00:17;;;;;;;;;;;;;;;3.27;43.92;101356.75;4440627;32;35378;-86
2022/03/01 05:02:45;;;;;;;;;;;;;;;3.25;44.11;101351.56;4421403;32;36138;-87
2022/03/01 05:05:12;;;;;;;;;;;;;;;3.60;43.24;101343.09;4446847;32;33045;-87
2022/03/01 05:07:41;;;;;;;;;;;;;;;3.26;44.33;101339.25;4436881;32;34271;-88
2022/03/01 05:10:11;;;;;;;;;;;;;;;3.30;44.47;101340.88;4431150;32;34783;-88
2022/03/01 05:12:41;;;;;;;;;;;;;;;3.02;44.64;101340.22;4440358;32;35059;-87
2022/03/01 05:15:11;;;;;;;;;;;;;;;3.36;44.11;101335.34;4440254;32;32590;-87
2022/03/01 05:17:39;;;;;;;;;;;;;;;3.37;44.07;101326.53;4439268;32;33846;-87
2022/03/01 05:20:08;;;;;;;;;;;;;;;3.38;44.28;101334.38;4434446;32;35935;-90
2022/03/01 05:22:36;;;;;;;;;;;;;;;3.67;43.21;101339.28;4418703;32;34759;-88
2022/03/01 05:25:04;;;;;;;;;;;;;;;3.44;43.86;101341.16;4422033;32;31636;-88
2022/03/01 05:27:32;;;;;;;;;;;;;;;3.58;43.31;101336.19;4438731;32;33897;-88
2022/03/01 05:30:00;;;;;;;;;;;;;;;3.42;43.61;101335.94;4435466;32;35835;-87
2022/03/01 05:32:28;;;;;;;;;;;;;;;3.07;44.59;101339.16;4422054;32;35721;-88
2022/03/01 05:34:57;;;;;;;;;;;;;;;3.15;44.67;101339.69;4432877;32;32246;-87
2022/03/01 05:37:25;;;;;;;;;;;;;;;3.40;44.36;101339.59;4409403;32;33937;-87
2022/03/01 05:39:53;;;;;;;;;;;;;;;3.03;44.72;101332.28;4427192;32;34728;-89
2022/03/01 05:42:20;;;;;;;;;;;;;;;3.13;44.37;101343.31;4436700;32;35300;-89
2022/03/01 05:44:49;;;;;;;;;;;;;;;3.07;44.53;101335.66;4438065;32;32870;-88
2022/03/01 05:47:17;;;;;;;;;;;;;;;2.97;44.52;101335.19;4433627;32;34056;-90
2022/03/01 05:49:45;;;;;;;;;;;;;;;2.87;44.41;101336.41;4424483;32;34636;-88
2022/03/01 05:52:13;;;;;;;;;;;;;;;3.26;43.95;101344.53;4425379;32;33596;-84
2022/03/01 05:54:40;;;;;;;;;;;;;;;3.33;43.54;101341.56;4435207;32;34562;-88
2022/03/01 05:57:08;;;;;;;;;;;;;;;2.97;44.44;101343.06;4440837;32;34877;-89
2022/03/01 05:59:39;;;;;;;;;;;;;;;3.54;43.56;101347.75;4434544;32;35004;-89
2022/03/01 06:02:07;;;;;;;;;;;;;;;3.40;43.72;101355.37;4418597;32;34331;-90
2022/03/01 06:04:36;;;;;;;;;;;;;;;3.07;44.85;101354.06;4436095;32;33150;-88
2022/03/01 06:07:05;;;;;;;;;;;;;;;2.88;45.40;101356.56;4436623;32;34445;-87
2022/03/01 06:09:35;;;;;;;;;;;;;;;2.80;45.84;101353.34;4431290;32;34106;-89
2022/03/01 06:12:03;;;;;;;;;;;;;;;2.52;45.48;101356.22;4421912;32;33276;-89
2022/03/01 06:14:30;;;;;;;;;;;;;;;3.07;44.07;101354.94;4437049;32;34191;-89
2022/03/01 06:16:59;;;;;;;;;;;;;;;3.20;44.52;101356.16;4399464;32;34324;-89
2022/03/01 06:19:27;;;;;;;;;;;;;;;2.81;45.17;101351.56;4436844;32;35580;-87
2022/03/01 06:21:55;;;;;;;;;;;;;;;3.42;44.01;101353.53;4420383;32;33164;-89
2022/03/01 06:24:23;;;;;;;;;;;;;;;3.63;43.95;101353.50;4431938;32;33352;-90
2022/03/01 06:26:51;;;;;;;;;;;;;;;3.31;43.83;101355.72;4442733;32;35643;-88
2022/03/01 06:29:18;;;;;;;;;;;;;;;3.69;42.91;101347.97;4432742;32;36054;-89
2022/03/01 06:31:46;;;;;;;;;;;;;;;3.76;43.04;101353.81;4437709;32;34943;-89
2022/03/01 06:34:13;;;;;;;;;;;;;;;3.87;43.01;101351.63;4426806;32;31945;-88
2022/03/01 06:36:41;;;;;;;;;;;;;;;3.80;43.00;101356.25;4440778;32;35165;-89
2022/03/01 06:39:08;;;;;;;;;;;;;;;4.17;42.10;101345.03;4439488;32;34643;-88
2022/03/01 06:41:36;;;;;;;;;;;;;;;4.10;42.08;101348.84;4408072;32;33820;-89
2022/03/01 06:44:03;;;;;;;;;;;;;;;3.52;43.32;101346.97;4428532;32;33422;-90
2022/03/01 06:46:31;;;;;;;;;;;;;;;4.11;42.69;101353.19;4435380;32;33002;-87
2022/03/01 06:48:58;;;;;;;;;;;;;;;4.51;41.46;101353.19;4432261;32;34919;-89
2022/03/01 06:51:26;;;;;;;;;;;;;;;4.67;41.11;101343.62;4433114;32;33810;-89
2022/03/01 06:53:54;;;;;;;;;;;;;;;4.89;40.53;101347.00;4443992;32;33505;-89
2022/03/01 06:56:21;;;;;;;;;;;;;;;5.06;39.72;101339.13;4416149;32;33967;-89
2022/03/01 06:58:48;;;;;;;;;;;;;;;4.92;40.08;101338.94;4424643;32;35708;-85
2022/03/01 07:01:16;;;;;;;;;;;;;;;5.24;39.84;101340.91;4437652;32;33668;-89
2022/03/01 07:03:44;;;;;;;;;;;;;;;5.24;39.88;101346.19;4430359;32;33626;-89
2022/03/01 07:06:11;;;;;;;;;;;;;;;5.26;39.35;101339.06;4441181;32;33075;-86
2022/03/01 07:08:39;;;;;;;;;;;;;;;5.35;39.27;101342.09;4422779;32;33500;-90
2022/03/01 07:11:06;;;;;;;;;;;;;;;5.29;40.03;101336.28;4422796;32;34960;-88
2022/03/01 07:13:34;;;;;;;;;;;;;;;5.67;39.43;101325.56;4441933;32;32930;-89
2022/03/01 07:16:03;;;;;;;;;;;;;;;5.36;41.58;101321.84;4441221;32;33145;-87
2022/03/01 07:18:32;;;;;;;;;;;;;;;5.47;39.00;101325.66;4435031;32;33987;-90
2022/03/01 07:20:59;;;;;;;;;;;;;;;5.26;40.76;101320.59;4435920;32;33332;-88
2022/03/01 07:23:28;;;;;;;;;;;;;;;5.15;39.91;101321.09;4425752;32;31740;-90
2022/03/01 07:25:56;;;;;;;;;;;;;;;5.70;37.41;101317.47;4439127;32;33717;-88
2022/03/01 07:28:23;;;;;;;;;;;;;;;5.60;37.99;101316.22;4410146;32;34402;-90
2022/03/01 07:30:51;;;;;;;;;;;;;;;5.28;38.50;101305.53;4437983;32;33992;-88
2022/03/01 07:33:18;;;;;;;;;;;;;;;5.07;38.97;101306.59;4426250;32;33722;-89
2022/03/01 07:35:46;;;;;;;;;;;;;;;5.12;39.09;101312.47;4406982;32;32453;-90
2022/03/01 07:38:13;;;;;;;;;;;;;;;5.53;38.91;101302.47;4418677;32;33770;-90
2022/03/01 07:40:42;;;;;;;;;;;;;;;5.73;38.16;101304.09;4437152;32;34553;-89
2022/03/01 07:43:09;;;;;;;;;;;;;;;5.81;37.70;101302.84;4437506;32;33386;-82
2022/03/01 07:45:37;;;;;;;;;;;;;;;6.11;37.60;101303.03;4423170;32;34190;-88
2022/03/01 07:48:05;;;;;;;;;;;;;;;5.92;37.73;101305.78;4436944;32;35555;-90
2022/03/01 07:50:34;;;;;;;;;;;;;;;5.89;37.43;101303.28;4422652;32;33963;-87
2022/03/01 07:53:03;;;;;;;;;;;;;;;6.59;36.68;101305.69;4436576;32;33002;-89
2022/03/01 07:55:30;;;;;;;;;;;;;;;6.69;34.76;101304.25;4439839;32;33687;-88
2022/03/01 07:57:57;;;;;;;;;;;;;;;6.63;36.48;101301.97;4433592;32;34027;-87
2022/03/01 08:00:25;;;;;;;;;;;;;;;6.81;36.18;101300.97;4421083;32;35189;-87
2022/03/01 08:02:53;;;;;;;;;;;;;;;6.92;36.15;101311.81;4433768;32;33676;-88
2022/03/01 08:05:21;;;;;;;;;;;;;;;7.05;36.20;101303.09;4436558;32;34005;-86
2022/03/01 08:07:49;;;;;;;;;;;;;;;7.08;34.88;101299.44;4435000;32;36206;-90
2022/03/01 08:10:18;;;;;;;;;;;;;;;7.06;34.83;101301.28;4446429;32;34189;-89
2022/03/01 08:12:46;;;;;;;;;;;;;;;7.41;34.43;101297.50;4437143;32;33621;-90
2022/03/01 08:15:15;;;;;;;;;;;;;;;7.61;32.94;101295.44;4453781;32;33963;-88
2022/03/01 08:17:46;;;;;;;;;;;;;;;7.34;35.91;101306.72;4455735;32;35182;-88
2022/03/01 08:20:14;;;;;;;;;;;;;;;7.78;33.73;101308.53;4452049;32;34560;-87
2022/03/01 08:22:42;;;;;;;;;;;;;;;7.72;33.96;101306.25;4455434;32;33781;-91
2022/03/01 08:25:09;;;;;;;;;;;;;;;8.13;35.43;101303.78;4449228;32;34243;-88
2022/03/01 08:27:37;;;;;;;;;;;;;;;8.39;33.00;101303.09;4456348;32;35256;-89
2022/03/01 08:30:06;;;;;;;;;;;;;;;8.13;32.35;101309.91;4421247;32;34081;-88
2022/03/01 08:32:34;;;;;;;;;;;;;;;8.04;34.01;101294.59;4449554;32;33481;-85
2022/03/01 08:35:02;;;;;;;;;;;;;;;7.93;32.63;101304.13;4423045;32;33727;-89
2022/03/01 08:37:30;;;;;;;;;;;;;;;8.09;32.38;101302.28;4451725;32;36386;-88
2022/03/01 08:39:58;;;;;;;;;;;;;;;8.31;34.16;101311.50;4449364;32;34576;-90
2022/03/01 08:42:25;;;;;;;;;;;;;;;8.82;32.12;101301.16;4457280;32;33401;-89
2022/03/01 08:44:53;;;;;;;;;;;;;;;8.90;32.70;101292.72;4451401;32;33760;-87
2022/03/01 08:47:23;;;;;;;;;;;;;;;8.47;30.59;101283.09;4452743;32;35911;-89
2022/03/01 08:49:51;;;;;;;;;;;;;;;8.33;31.13;101283.12;4448141;32;34334;-88
2022/03/01 08:52:19;;;;;;;;;;;;;;;8.51;31.17;101284.63;4434536;32;32914;-84
2022/03/01 08:54:46;;;;;;;;;;;;;;;8.50;28.84;101273.16;4435126;32;33741;-85
2022/03/01 08:57:14;;;;;;;;;;;;;;;8.45;29.29;101272.56;4418930;32;34528;-87
2022/03/01 08:59:42;;;;;;;;;;;;;;;8.04;29.84;101284.00;4426378;32;34621;-88
2022/03/01 09:02:09;;;;;;;;;;;;;;;7.66;30.86;101280.09;4438256;32;33010;-87
2022/03/01 09:04:37;;;;;;;;;;;;;;;7.88;31.05;101277.03;4429888;32;33293;-88
2022/03/01 09:07:05;;;;;;;;;;;;;;;7.76;31.51;101275.13;4439083;32;34571;-89
2022/03/01 09:09:32;;;;;;;;;;;;;;;7.94;31.65;101276.69;4450394;32;34719;-90
2022/03/01 09:12:00;;;;;;;;;;;;;;;8.45;33.27;101272.56;4449987;32;33209;-86
2022/03/01 09:14:27;;;;;;;;;;;;;;;8.54;30.46;101279.12;4420310;32;32780;-88
2022/03/01 09:16:55;;;;;;;;;;;;;;;8.93;30.42;101274.81;4427332;32;34825;-84
2022/03/01 09:19:22;;;;;;;;;;;;;;;8.87;29.40;101266.38;4453617;32;34481;-88
2022/03/01 09:21:50;;;;;;;;;;;;;;;8.64;28.16;101269.62;4408431;32;32804;-90
2022/03/01 09:24:18;;;;;;;;;;;;;;;8.44;28.58;101262.91;4436478;32;34877;-88
2022/03/01 09:26:47;;;;;;;;;;;;;;;8.01;29.79;101270.09;4419331;32;34955;-87
2022/03/01 09:29:20;;;;;;;;;;;;;;;8.26;29.85;101272.97;4426362;32;35145;-89
2022/03/01 09:31:47;;;;;;;;;;;;;;;8.42;30.66;101263.97;4407462;32;32178;-88
2022/03/01 09:34:15;;;;;;;;;;;;;;;8.70;31.37;101256.84;4405221;32;33590;-90
2022/03/01 09:36:47;;;;;;;;;;;;;;;9.00;31.43;101248.72;4440480;32;35099;-88
2022/03/01 09:39:18;;;;;;;;;;;;;;;8.59;30.61;101250.50;4453124;32;35424;-89
2022/03/01 09:41:46;;;;;;;;;;;;;;;9.22;30.55;101243.69;4432381;32;32972;-89
2022/03/01 09:44:15;;;;;;;;;;;;;;;9.59;27.65;101240.31;4429762;32;34950;-88
2022/03/01 09:46:44;;;;;;;;;;;;;;;9.54;27.06;101235.28;4431741;32;34474;-89
2022/03/01 09:49:13;;;;;;;;;;;;;;;9.06;29.08;101235.91;4449162;32;34810;-90
2022/03/01 09:51:40;;;;;;;;;;;;;;;9.11;30.08;101232.94;4447850;32;33171;-87
2022/03/01 09:54:08;;;;;;;;;;;;;;;9.44;30.84;101234.22;4431415;32;33521;-90
2022/03/01 09:56:36;;;;;;;;;;;;;;;9.08;30.10;101226.03;4434231;32;35003;-85
2022/03/01 09:59:04;;;;;;;;;;;;;;;9.06;30.61;101222.63;4452334;32;33570;-90
2022/03/01 10:01:31;;;;;;;;;;;;;;;9.72;29.07;101211.97;4438211;32;31963;-89
2022/03/01 10:04:06;;;;;;;;;;;;;;;9.75;28.39;101203.78;4421694;32;33272;-89
2022/03/01 10:06:38;;;;;;;;;;;;;;;9.80;28.81;101205.16;4424597;32;34423;-89
2022/03/01 10:09:17;;;;;;;;;;;;;;;9.76;28.63;101205.47;4440981;32;35373;-87
2022/03/01 10:11:47;;;;;;;;;;;;;;;9.84;30.92;101195.16;4412468;32;31508;-89
2022/03/01 10:14:26;;;;;;;;;;;;;;;10.02;27.32;101191.25;4423495;32;33110;-86
2022/03/01 10:16:56;;;;;;;;;;;;;;;9.84;28.46;101195.16;4423213;32;33646;-86
2022/03/01 10:19:25;;;;;;;;;;;;;;;9.86;28.17;101191.47;4423331;32;33851;-91
2022/03/01 10:22:00;;;;;;;;;;;;;;;9.74;27.53;101196.75;4425055;32;33584;-89
2022/03/01 10:24:29;;;;;;;;;;;;;;;9.98;27.84;101195.03;4430330;32;33646;-91
2022/03/01 10:27:01;;;;;;;;;;;;;;;10.40;26.34;101181.44;4459230;32;34425;-85
2022/03/01 10:29:48;;;;;;;;;;;;;;;10.40;27.37;101170.78;4426680;32;34159;-90
2022/03/01 10:32:15;;;;;;;;;;;;;;;10.46;28.72;101163.22;4458701;32;33141;-88
2022/03/01 10:34:58;;;;;;;;;;;;;;;10.84;26.07;101169.25;4437768;32;34475;-86
2022/03/01 10:37:27;;;;;;;;;;;;;;;10.56;28.19;101168.72;4410758;32;34689;-89
2022/03/01 10:40:11;;;;;;;;;;;;;;;10.61;25.97;101161.25;4440153;32;34111;-90
2022/03/01 10:42:39;;;;;;;;;;;;;;;10.19;27.21;101169.66;4419902;32;32946;-89
2022/03/01 10:45:10;;;;;;;;;;;;;;;10.87;25.96;101157.53;4426051;32;33949;-89
2022/03/01 10:47:38;;;;;;;;;;;;;;;10.96;26.59;101155.03;4439851;32;34544;-89
2022/03/01 10:50:07;;;;;;;;;;;;;;;11.17;22.92;101144.59;4424895;32;33460;-88
2022/03/01 10:52:36;;;;;;;;;;;;;;;10.90;22.87;101146.66;4427742;32;32680;-90
2022/03/01 10:55:04;;;;;;;;;;;;;;;10.32;25.67;101131.44;4427555;32;32833;-90
2022/03/01 10:57:32;;;;;;;;;;;;;;;10.27;26.14;101128.25;4430203;32;33601;-88
2022/03/01 11:00:00;;;;;;;;;;;;;;;10.86;25.47;101122.06;4454482;32;35497;-89
2022/03/01 11:02:27;;;;;;;;;;;;;;;10.54;26.79;101112.97;4410672;32;31847;-89
2022/03/01 11:04:55;;;;;;;;;;;;;;;10.92;25.11;101115.44;4430273;32;34120;-91
2022/03/01 11:07:25;;;;;;;;;;;;;;;10.97;25.18;101115.94;4423743;32;36117;-88
2022/03/01 11:10:01;;;;;;;;;;;;;;;11.25;25.58;101107.56;4441165;32;33921;-89
2022/03/01 11:12:29;;;;;;;;;;;;;;;11.51;25.40;101096.59;4430029;32;31787;-89
2022/03/01 11:15:09;;;;;;;;;;;;;;;11.42;24.38;101094.66;4422053;32;33270;-90
2022/03/01 11:17:43;;;;;;;;;;;;;;;11.57;23.88;101091.69;4444733;32;34727;-87
2022/03/01 11:20:14;;;;;;;;;;;;;;;11.76;25.26;101099.97;4454405;32;34448;-88
2022/03/01 11:22:42;;;;;;;;;;;;;;;12.06;23.71;101086.00;4436393;32;34021;-89
2022/03/01 11:25:16;;;;;;;;;;;;;;;12.37;22.70;101072.72;4432205;32;35045;-90
2022/03/01 11:27:46;;;;;;;;;;;;;;;12.06;22.94;101070.00;4416421;32;33510;-87
2022/03/01 11:30:17;;;;;;;;;;;;;;;11.53;22.54;101068.88;4425120;32;33579;-87
2022/03/01 11:32:45;;;;;;;;;;;;;;;12.21;21.55;101063.44;4432301;32;31998;-89
2022/03/01 11:35:19;;;;;;;;;;;;;;;12.47;20.98;101051.50;4423142;32;34354;-90
2022/03/01 11:38:06;;;;;;;;;;;;;;;12.47;21.34;101049.66;4428210;32;35341;-89
2022/03/01 11:40:43;;;;;;;;;;;;;;;12.80;21.98;101043.34;4437558;32;34040;-89
2022/03/01 11:43:20;;;;;;;;;;;;;;;12.55;19.08;101035.69;4432513;32;31738;-89
2022/03/01 11:45:48;;;;;;;;;;;;;;;12.38;20.15;101033.56;4436441;32;33127;-86
2022/03/01 11:48:19;;;;;;;;;;;;;;;12.07;22.22;101032.53;4417890;32;35290;-87
2022/03/01 11:51:06;;;;;;;;;;;;;;;12.06;22.62;101030.84;4424598;32;35823;-90
2022/03/01 11:53:35;;;;;;;;;;;;;;;11.76;24.04;101021.78;4427259;32;32110;-89
2022/03/01 11:56:04;;;;;;;;;;;;;;;12.49;22.10;101014.84;4452678;32;33824;-87
2022/03/01 11:58:34;;;;;;;;;;;;;;;13.07;19.71;101012.53;4422491;32;36192;-89
2022/03/01 12:01:05;;;;;;;;;;;;;;;12.39;20.45;101020.06;4428210;32;34080;-90
2022/03/01 12:03:38;;;;;;;;;;;;;;;12.40;21.17;101007.59;4424146;32;32264;-89
2022/03/01 12:06:06;;;;;;;;;;;;;;;12.61;21.61;101001.31;4455007;32;34546;-89
2022/03/01 12:08:36;;;;;;;;;;;;;;;12.64;22.23;101000.19;4435495;32;35115;-89
2022/03/01 12:11:04;;;;;;;;;;;;;;;12.79;21.95;100998.91;4433624;32;35061;-89
2022/03/01 12:13:34;;;;;;;;;;;;;;;12.93;22.63;100996.78;4423173;32;32905;-89
2022/03/01 12:16:03;;;;;;;;;;;;;;;12.89;20.88;100995.34;4427981;32;33279;-89
2022/03/01 12:18:38;;;;;;;;;;;;;;;13.25;21.97;100994.06;4457137;32;34746;-90
2022/03/01 12:21:09;;;;;;;;;;;;;;;13.51;17.68;100989.97;4442189;32;34862;-89
2022/03/01 12:23:39;;;;;;;;;;;;;;;13.40;20.65;100987.41;4411211;32;32178;-90
2022/03/01 12:26:09;;;;;;;;;;;;;;;13.44;20.51;100980.78;4403279;32;33214;-91
2022/03/01 12:28:38;;;;;;;;;;;;;;;13.45;19.40;100977.13;4437585;32;35296;-90
2022/03/01 12:31:10;;;;;;;;;;;;;;;13.67;19.05;100980.47;4424398;32;34327;-91
2022/03/01 12:33:46;;;;;;;;;;;;;;;14.11;19.27;100974.69;4443274;32;32754;-91
2022/03/01 12:36:21;;;;;;;;;;;;;;;13.71;18.82;100965.87;4411028;32;32511;-90
2022/03/01 12:39:00;;;;;;;;;;;;;;;14.07;18.25;100965.22;4432617;32;34875;-90
2022/03/01 12:41:28;;;;;;;;;;;;;;;14.67;18.45;100963.19;4426446;32;33727;-87
2022/03/01 12:43:57;;;;;;;;;;;;;;;14.01;15.95;100959.59;4440713;32;32768;-89
2022/03/01 12:46:26;;;;;;;;;;;;;;;13.74;18.06;100956.69;4419485;32;34556;-90
2022/03/01 12:48:54;;;;;;;;;;;;;;;13.22;18.88;100957.75;4423380;32;36011;-88
2022/03/01 12:51:22;;;;;;;;;;;;;;;13.46;18.99;100952.94;4404803;32;33821;-91
2022/03/01 12:53:55;;;;;;;;;;;;;;;14.08;19.19;100953.56;4424866;32;32512;-91